Saint James City, FL (33956)

11:10 PM EST on December 09, 2016 (GMT -0500)
KFLST.JA1 | | Change Station

Elev 5 ft 26.50 °N, 82.08 °W | Updated 29 seconds ago

Partly Cloudy
Partly Cloudy
58.6 °F
Feels Like 58.6 °F
N
5.0
Wind Variable Wind from North
Gusts 5.0 mph

Today
High -- | Low -- °F
--% Chance of Precip.
Yesterday
High -- | Low -- °F
Precip. -- in
Pressure 30.29 in
Visibility 10.0 miles
Clouds Clear
Dew Point 51 °F
Humidity 76%
Rainfall 0.04 in
Snow Depth Not available.
7:05 AM 5:36 PM
Waxing Gibbous, 80% visible
METAR KFMY 100353Z AUTO 04007KT 10SM CLR 14/09 A3028 RMK AO2 SLP255 T01440089
Pressure 30.29 in
Visibility 10.0 miles
Clouds Clear
Dew Point 51 °F
Humidity 76%
Rainfall 0.04 in
Snow Depth Not available.
7:05 AM 5:36 PM
Waxing Gibbous, 80% visible
METAR KFMY 100353Z AUTO 04007KT 10SM CLR 14/09 A3028 RMK AO2 SLP255 T01440089

10-Day Weather Forecast

Almanac

Astronomy

Dec. 09, 2016 Rise Set
Actual Time
Civil Twilight
Nautical Twilight
Astronomical Twilight
Moon
Length of Visible Light
Length of Day
Tomorrow will be .
, % of the Moon is Illuminated

Today's Extremes

State Highs State Lows

Community

WunderPhotos

Upload Photos

1,956,529 photos uploaded!

WunderBlog® & News

Nearby

Air Quality

  Air Quality AQ Index Pollutant
Not available.

Snow Depth

Station Depth Elevation

Earthquake Activity

City Distance Mag. Time & Date
Minimum magnitude displayed is 2.5.

Coastal Water Temperatures

Place Temperature

Stations

Nearby Weather Stations

Station Location Temp. Windchill Dew Point Humidity Wind Precip. Elev Updated Type
                   

Watches & Warnings

There are currently no watches in effect.